sensor_id;sensor_type;location;lat;lon;timestamp;temperature;humidity
40253;DHT22;25972;51.854;4.534;2022-07-19T00:01:45;23.60;90.10
40253;DHT22;25972;51.854;4.534;2022-07-19T00:04:11;23.50;90.30
40253;DHT22;25972;51.854;4.534;2022-07-19T00:06:37;23.50;90.40
40253;DHT22;25972;51.854;4.534;2022-07-19T00:09:04;23.40;90.50
40253;DHT22;25972;51.854;4.534;2022-07-19T00:11:30;23.40;90.70
40253;DHT22;25972;51.854;4.534;2022-07-19T00:13:56;23.40;90.90
40253;DHT22;25972;51.854;4.534;2022-07-19T00:16:22;23.30;90.90
40253;DHT22;25972;51.854;4.534;2022-07-19T00:18:47;23.30;91.00
40253;DHT22;25972;51.854;4.534;2022-07-19T00:21:13;23.30;91.10
40253;DHT22;25972;51.854;4.534;2022-07-19T00:23:39;23.20;91.30
40253;DHT22;25972;51.854;4.534;2022-07-19T00:26:05;23.20;91.30
40253;DHT22;25972;51.854;4.534;2022-07-19T00:28:31;23.10;91.50
40253;DHT22;25972;51.854;4.534;2022-07-19T00:30:59;23.00;91.50
40253;DHT22;25972;51.854;4.534;2022-07-19T00:33:25;23.00;91.60
40253;DHT22;25972;51.854;4.534;2022-07-19T00:35:50;22.90;92.00
40253;DHT22;25972;51.854;4.534;2022-07-19T00:38:16;22.90;91.90
40253;DHT22;25972;51.854;4.534;2022-07-19T00:40:42;22.90;91.90
40253;DHT22;25972;51.854;4.534;2022-07-19T00:43:11;22.90;91.80
40253;DHT22;25972;51.854;4.534;2022-07-19T00:45:38;22.90;92.00
40253;DHT22;25972;51.854;4.534;2022-07-19T00:48:04;22.80;92.00
40253;DHT22;25972;51.854;4.534;2022-07-19T00:50:31;22.80;92.00
40253;DHT22;25972;51.854;4.534;2022-07-19T00:52:59;22.80;91.70
40253;DHT22;25972;51.854;4.534;2022-07-19T00:55:31;22.80;91.70
40253;DHT22;25972;51.854;4.534;2022-07-19T00:57:58;22.80;91.80
40253;DHT22;25972;51.854;4.534;2022-07-19T01:00:27;22.70;91.90
40253;DHT22;25972;51.854;4.534;2022-07-19T01:02:54;22.70;92.10
40253;DHT22;25972;51.854;4.534;2022-07-19T01:05:19;22.70;92.20
40253;DHT22;25972;51.854;4.534;2022-07-19T01:07:45;22.60;92.30
40253;DHT22;25972;51.854;4.534;2022-07-19T01:10:13;22.60;92.50
40253;DHT22;25972;51.854;4.534;2022-07-19T01:12:39;22.60;92.70
40253;DHT22;25972;51.854;4.534;2022-07-19T01:15:16;22.60;92.90
40253;DHT22;25972;51.854;4.534;2022-07-19T01:17:42;22.50;93.30
40253;DHT22;25972;51.854;4.534;2022-07-19T01:20:09;22.50;93.20
40253;DHT22;25972;51.854;4.534;2022-07-19T01:22:35;22.40;93.20
40253;DHT22;25972;51.854;4.534;2022-07-19T01:25:00;22.40;93.50
40253;DHT22;25972;51.854;4.534;2022-07-19T01:27:26;22.30;93.50
40253;DHT22;25972;51.854;4.534;2022-07-19T01:29:54;22.30;93.50
40253;DHT22;25972;51.854;4.534;2022-07-19T01:32:20;22.30;93.60
40253;DHT22;25972;51.854;4.534;2022-07-19T01:34:45;22.20;93.60
40253;DHT22;25972;51.854;4.534;2022-07-19T01:37:11;22.20;93.70
40253;DHT22;25972;51.854;4.534;2022-07-19T01:39:37;22.20;93.80
40253;DHT22;25972;51.854;4.534;2022-07-19T01:42:02;22.20;93.90
40253;DHT22;25972;51.854;4.534;2022-07-19T01:44:28;22.20;94.10
40253;DHT22;25972;51.854;4.534;2022-07-19T01:46:57;22.10;94.20
40253;DHT22;25972;51.854;4.534;2022-07-19T01:49:23;22.10;94.40
40253;DHT22;25972;51.854;4.534;2022-07-19T01:51:48;22.00;94.40
40253;DHT22;25972;51.854;4.534;2022-07-19T01:54:14;22.00;94.60
40253;DHT22;25972;51.854;4.534;2022-07-19T01:56:43;22.00;94.60
40253;DHT22;25972;51.854;4.534;2022-07-19T01:59:09;21.90;94.70
40253;DHT22;25972;51.854;4.534;2022-07-19T02:01:35;21.90;94.60
40253;DHT22;25972;51.854;4.534;2022-07-19T02:04:00;21.90;94.70
40253;DHT22;25972;51.854;4.534;2022-07-19T02:06:26;21.90;94.70
40253;DHT22;25972;51.854;4.534;2022-07-19T02:08:52;21.90;94.60
40253;DHT22;25972;51.854;4.534;2022-07-19T02:11:17;21.90;94.40
40253;DHT22;25972;51.854;4.534;2022-07-19T02:14:07;21.90;94.20
40253;DHT22;25972;51.854;4.534;2022-07-19T02:16:34;21.90;94.10
40253;DHT22;25972;51.854;4.534;2022-07-19T02:19:00;21.90;94.00
40253;DHT22;25972;51.854;4.534;2022-07-19T02:21:26;21.90;93.90
40253;DHT22;25972;51.854;4.534;2022-07-19T02:23:52;21.90;94.00
40253;DHT22;25972;51.854;4.534;2022-07-19T02:26:18;21.90;94.00
40253;DHT22;25972;51.854;4.534;2022-07-19T02:28:43;21.90;94.10
40253;DHT22;25972;51.854;4.534;2022-07-19T02:31:09;21.80;94.10
40253;DHT22;25972;51.854;4.534;2022-07-19T02:33:35;21.80;94.20
40253;DHT22;25972;51.854;4.534;2022-07-19T02:36:01;21.80;94.40
40253;DHT22;25972;51.854;4.534;2022-07-19T02:38:27;21.70;94.70
40253;DHT22;25972;51.854;4.534;2022-07-19T02:40:53;21.70;94.90
40253;DHT22;25972;51.854;4.534;2022-07-19T02:43:18;21.60;94.90
40253;DHT22;25972;51.854;4.534;2022-07-19T02:45:44;21.70;94.90
40253;DHT22;25972;51.854;4.534;2022-07-19T02:48:10;21.60;94.90
40253;DHT22;25972;51.854;4.534;2022-07-19T02:50:36;21.60;95.10
40253;DHT22;25972;51.854;4.534;2022-07-19T02:53:02;21.60;95.10
40253;DHT22;25972;51.854;4.534;2022-07-19T02:55:27;21.50;95.00
40253;DHT22;25972;51.854;4.534;2022-07-19T02:57:53;21.50;95.00
40253;DHT22;25972;51.854;4.534;2022-07-19T03:00:20;21.50;95.20
40253;DHT22;25972;51.854;4.534;2022-07-19T03:02:46;21.50;95.00
40253;DHT22;25972;51.854;4.534;2022-07-19T03:05:12;21.50;95.00
40253;DHT22;25972;51.854;4.534;2022-07-19T03:07:38;21.50;95.00
40253;DHT22;25972;51.854;4.534;2022-07-19T03:10:04;21.50;95.10
40253;DHT22;25972;51.854;4.534;2022-07-19T03:12:30;21.40;95.30
40253;DHT22;25972;51.854;4.534;2022-07-19T03:14:56;21.40;95.40
40253;DHT22;25972;51.854;4.534;2022-07-19T03:17:22;21.30;95.50
40253;DHT22;25972;51.854;4.534;2022-07-19T03:19:48;21.30;96.10
40253;DHT22;25972;51.854;4.534;2022-07-19T03:22:14;21.30;96.10
40253;DHT22;25972;51.854;4.534;2022-07-19T03:24:40;21.30;96.20
40253;DHT22;25972;51.854;4.534;2022-07-19T03:27:05;21.20;96.30
40253;DHT22;25972;51.854;4.534;2022-07-19T03:29:31;21.20;96.30
40253;DHT22;25972;51.854;4.534;2022-07-19T03:31:57;21.10;96.40
40253;DHT22;25972;51.854;4.534;2022-07-19T03:34:24;21.10;96.70
40253;DHT22;25972;51.854;4.534;2022-07-19T03:36:50;21.10;96.70
40253;DHT22;25972;51.854;4.534;2022-07-19T03:39:16;21.10;96.80
40253;DHT22;25972;51.854;4.534;2022-07-19T03:41:43;21.00;96.80
40253;DHT22;25972;51.854;4.534;2022-07-19T03:44:09;21.00;97.10
40253;DHT22;25972;51.854;4.534;2022-07-19T03:46:35;21.00;97.20
40253;DHT22;25972;51.854;4.534;2022-07-19T03:49:01;20.90;97.30
40253;DHT22;25972;51.854;4.534;2022-07-19T03:51:26;20.90;97.50
40253;DHT22;25972;51.854;4.534;2022-07-19T03:53:52;20.90;97.60
40253;DHT22;25972;51.854;4.534;2022-07-19T03:56:18;20.90;97.60
40253;DHT22;25972;51.854;4.534;2022-07-19T03:58:46;20.90;97.70
40253;DHT22;25972;51.854;4.534;2022-07-19T04:01:13;20.90;97.80
40253;DHT22;25972;51.854;4.534;2022-07-19T04:03:39;20.90;97.80
40253;DHT22;25972;51.854;4.534;2022-07-19T04:06:06;20.90;97.80
40253;DHT22;25972;51.854;4.534;2022-07-19T04:08:33;20.90;97.70
40253;DHT22;25972;51.854;4.534;2022-07-19T04:10:59;21.00;97.50
40253;DHT22;25972;51.854;4.534;2022-07-19T04:13:27;21.10;97.40
40253;DHT22;25972;51.854;4.534;2022-07-19T04:15:53;21.10;97.30
40253;DHT22;25972;51.854;4.534;2022-07-19T04:18:19;21.10;97.10
40253;DHT22;25972;51.854;4.534;2022-07-19T04:20:45;21.20;97.00
40253;DHT22;25972;51.854;4.534;2022-07-19T04:23:11;21.20;96.90
40253;DHT22;25972;51.854;4.534;2022-07-19T04:25:37;21.20;96.80
40253;DHT22;25972;51.854;4.534;2022-07-19T04:28:03;21.30;96.80
40253;DHT22;25972;51.854;4.534;2022-07-19T04:30:29;21.30;97.00
40253;DHT22;25972;51.854;4.534;2022-07-19T04:32:55;21.40;97.10
40253;DHT22;25972;51.854;4.534;2022-07-19T04:35:21;21.40;97.20
40253;DHT22;25972;51.854;4.534;2022-07-19T04:37:47;21.50;97.30
40253;DHT22;25972;51.854;4.534;2022-07-19T04:40:13;21.50;97.40
40253;DHT22;25972;51.854;4.534;2022-07-19T04:42:39;21.60;97.50
40253;DHT22;25972;51.854;4.534;2022-07-19T04:45:05;21.60;97.50
40253;DHT22;25972;51.854;4.534;2022-07-19T04:47:31;21.60;97.60
40253;DHT22;25972;51.854;4.534;2022-07-19T04:49:57;21.70;97.70
40253;DHT22;25972;51.854;4.534;2022-07-19T04:52:23;21.80;97.70
40253;DHT22;25972;51.854;4.534;2022-07-19T04:54:51;21.90;97.80
40253;DHT22;25972;51.854;4.534;2022-07-19T04:57:17;21.90;97.80
40253;DHT22;25972;51.854;4.534;2022-07-19T04:59:43;22.00;97.30
40253;DHT22;25972;51.854;4.534;2022-07-19T05:02:09;22.10;96.90
40253;DHT22;25972;51.854;4.534;2022-07-19T05:04:34;22.20;96.60
40253;DHT22;25972;51.854;4.534;2022-07-19T05:07:00;22.30;96.30
40253;DHT22;25972;51.854;4.534;2022-07-19T05:09:27;22.50;96.00
40253;DHT22;25972;51.854;4.534;2022-07-19T05:11:54;22.60;95.80
40253;DHT22;25972;51.854;4.534;2022-07-19T05:14:20;22.90;95.70
40253;DHT22;25972;51.854;4.534;2022-07-19T05:16:46;23.80;95.10
40253;DHT22;25972;51.854;4.534;2022-07-19T05:19:16;24.70;94.10
40253;DHT22;25972;51.854;4.534;2022-07-19T05:21:45;25.70;93.20
40253;DHT22;25972;51.854;4.534;2022-07-19T05:24:10;26.60;92.40
40253;DHT22;25972;51.854;4.534;2022-07-19T05:26:36;27.30;91.40
40253;DHT22;25972;51.854;4.534;2022-07-19T05:29:02;28.10;90.50
40253;DHT22;25972;51.854;4.534;2022-07-19T05:31:29;28.60;89.90
40253;DHT22;25972;51.854;4.534;2022-07-19T05:33:55;29.10;88.80
40253;DHT22;25972;51.854;4.534;2022-07-19T05:36:23;29.50;87.70
40253;DHT22;25972;51.854;4.534;2022-07-19T05:38:49;30.00;86.60
40253;DHT22;25972;51.854;4.534;2022-07-19T05:41:17;30.30;85.50
40253;DHT22;25972;51.854;4.534;2022-07-19T05:43:43;30.70;84.60
40253;DHT22;25972;51.854;4.534;2022-07-19T05:46:09;30.80;83.60
40253;DHT22;25972;51.854;4.534;2022-07-19T05:48:35;30.90;83.10
40253;DHT22;25972;51.854;4.534;2022-07-19T05:51:01;31.00;82.40
40253;DHT22;25972;51.854;4.534;2022-07-19T05:53:29;31.30;81.80
40253;DHT22;25972;51.854;4.534;2022-07-19T05:55:55;31.30;81.60
40253;DHT22;25972;51.854;4.534;2022-07-19T05:58:21;31.40;81.50
40253;DHT22;25972;51.854;4.534;2022-07-19T06:00:48;31.60;81.00
40253;DHT22;25972;51.854;4.534;2022-07-19T06:03:32;31.70;80.40
40253;DHT22;25972;51.854;4.534;2022-07-19T06:05:58;32.00;80.00
40253;DHT22;25972;51.854;4.534;2022-07-19T06:08:24;32.00;79.60
40253;DHT22;25972;51.854;4.534;2022-07-19T06:10:51;32.20;78.80
40253;DHT22;25972;51.854;4.534;2022-07-19T06:13:18;31.70;78.40
40253;DHT22;25972;51.854;4.534;2022-07-19T06:15:43;31.00;79.30
40253;DHT22;25972;51.854;4.534;2022-07-19T06:18:09;30.50;79.70
40253;DHT22;25972;51.854;4.534;2022-07-19T06:20:35;30.10;80.10
40253;DHT22;25972;51.854;4.534;2022-07-19T06:23:01;29.70;81.00
40253;DHT22;25972;51.854;4.534;2022-07-19T06:25:27;29.60;81.20
40253;DHT22;25972;51.854;4.534;2022-07-19T06:27:52;29.50;81.40
40253;DHT22;25972;51.854;4.534;2022-07-19T06:30:18;29.50;81.60
40253;DHT22;25972;51.854;4.534;2022-07-19T06:32:44;29.40;81.50
40253;DHT22;25972;51.854;4.534;2022-07-19T06:35:09;29.40;81.60
40253;DHT22;25972;51.854;4.534;2022-07-19T06:37:36;29.50;81.30
40253;DHT22;25972;51.854;4.534;2022-07-19T06:40:02;29.50;81.10
40253;DHT22;25972;51.854;4.534;2022-07-19T06:42:28;29.70;81.20
40253;DHT22;25972;51.854;4.534;2022-07-19T06:44:54;29.90;81.40
40253;DHT22;25972;51.854;4.534;2022-07-19T06:47:21;30.00;80.90
40253;DHT22;25972;51.854;4.534;2022-07-19T06:49:47;30.00;80.10
40253;DHT22;25972;51.854;4.534;2022-07-19T06:52:13;30.10;80.60
40253;DHT22;25972;51.854;4.534;2022-07-19T06:54:38;30.10;80.10
40253;DHT22;25972;51.854;4.534;2022-07-19T06:57:04;30.10;80.00
40253;DHT22;25972;51.854;4.534;2022-07-19T06:59:31;30.30;80.00
40253;DHT22;25972;51.854;4.534;2022-07-19T07:01:57;30.40;80.10
40253;DHT22;25972;51.854;4.534;2022-07-19T07:04:23;30.50;80.10
40253;DHT22;25972;51.854;4.534;2022-07-19T07:06:49;30.60;80.10
40253;DHT22;25972;51.854;4.534;2022-07-19T07:09:14;30.60;80.40
40253;DHT22;25972;51.854;4.534;2022-07-19T07:11:40;30.70;80.10
40253;DHT22;25972;51.854;4.534;2022-07-19T07:14:06;30.90;80.10
40253;DHT22;25972;51.854;4.534;2022-07-19T07:16:32;31.10;79.80
40253;DHT22;25972;51.854;4.534;2022-07-19T07:18:58;31.00;78.60
40253;DHT22;25972;51.854;4.534;2022-07-19T07:21:23;30.80;77.80
40253;DHT22;25972;51.854;4.534;2022-07-19T07:23:49;30.90;77.80
40253;DHT22;25972;51.854;4.534;2022-07-19T07:26:15;31.00;77.70
40253;DHT22;25972;51.854;4.534;2022-07-19T07:28:41;31.10;77.60
40253;DHT22;25972;51.854;4.534;2022-07-19T07:31:07;31.00;76.60
40253;DHT22;25972;51.854;4.534;2022-07-19T07:33:32;31.00;76.00
40253;DHT22;25972;51.854;4.534;2022-07-19T07:35:58;31.10;75.70
40253;DHT22;25972;51.854;4.534;2022-07-19T07:38:24;31.30;75.70
40253;DHT22;25972;51.854;4.534;2022-07-19T07:40:50;31.40;76.10
40253;DHT22;25972;51.854;4.534;2022-07-19T07:43:15;31.60;75.40
40253;DHT22;25972;51.854;4.534;2022-07-19T07:45:41;31.70;75.40
40253;DHT22;25972;51.854;4.534;2022-07-19T07:48:08;31.90;75.40
40253;DHT22;25972;51.854;4.534;2022-07-19T07:50:34;32.10;75.20
40253;DHT22;25972;51.854;4.534;2022-07-19T07:53:00;32.30;74.70
40253;DHT22;25972;51.854;4.534;2022-07-19T07:55:26;32.20;74.60
40253;DHT22;25972;51.854;4.534;2022-07-19T07:57:51;32.50;74.70
40253;DHT22;25972;51.854;4.534;2022-07-19T08:00:17;32.70;74.70
40253;DHT22;25972;51.854;4.534;2022-07-19T08:02:45;32.90;74.40
40253;DHT22;25972;51.854;4.534;2022-07-19T08:05:12;33.00;74.20
40253;DHT22;25972;51.854;4.534;2022-07-19T08:07:38;33.20;74.30
40253;DHT22;25972;51.854;4.534;2022-07-19T08:10:06;33.30;74.10
40253;DHT22;25972;51.854;4.534;2022-07-19T08:12:32;33.50;74.10
40253;DHT22;25972;51.854;4.534;2022-07-19T08:14:58;33.60;73.50
40253;DHT22;25972;51.854;4.534;2022-07-19T08:17:24;33.70;73.40
40253;DHT22;25972;51.854;4.534;2022-07-19T08:19:50;33.50;72.30
40253;DHT22;25972;51.854;4.534;2022-07-19T08:22:16;33.50;72.00
40253;DHT22;25972;51.854;4.534;2022-07-19T08:24:44;33.60;72.10
40253;DHT22;25972;51.854;4.534;2022-07-19T08:27:10;33.80;71.60
40253;DHT22;25972;51.854;4.534;2022-07-19T08:29:36;33.90;71.00
40253;DHT22;25972;51.854;4.534;2022-07-19T08:32:02;33.90;70.30
40253;DHT22;25972;51.854;4.534;2022-07-19T08:34:28;33.90;70.50
40253;DHT22;25972;51.854;4.534;2022-07-19T08:36:53;33.90;70.80
40253;DHT22;25972;51.854;4.534;2022-07-19T08:39:19;34.20;70.80
40253;DHT22;25972;51.854;4.534;2022-07-19T08:41:45;34.20;70.30
40253;DHT22;25972;51.854;4.534;2022-07-19T08:44:16;34.10;70.20
40253;DHT22;25972;51.854;4.534;2022-07-19T08:46:43;34.40;70.20
40253;DHT22;25972;51.854;4.534;2022-07-19T08:49:09;34.50;70.10
40253;DHT22;25972;51.854;4.534;2022-07-19T08:51:35;34.90;70.40
40253;DHT22;25972;51.854;4.534;2022-07-19T08:54:01;35.10;69.80
40253;DHT22;25972;51.854;4.534;2022-07-19T08:56:27;35.40;69.60
40253;DHT22;25972;51.854;4.534;2022-07-19T08:59:12;35.60;70.00
40253;DHT22;25972;51.854;4.534;2022-07-19T09:01:38;35.90;69.70
40253;DHT22;25972;51.854;4.534;2022-07-19T09:04:20;36.00;69.00
40253;DHT22;25972;51.854;4.534;2022-07-19T09:06:48;35.90;67.30
40253;DHT22;25972;51.854;4.534;2022-07-19T09:09:16;36.00;68.40
40253;DHT22;25972;51.854;4.534;2022-07-19T09:11:44;36.00;67.70
40253;DHT22;25972;51.854;4.534;2022-07-19T09:14:30;36.20;68.00
40253;DHT22;25972;51.854;4.534;2022-07-19T09:17:07;36.60;69.20
40253;DHT22;25972;51.854;4.534;2022-07-19T09:19:42;36.60;67.10
40253;DHT22;25972;51.854;4.534;2022-07-19T09:22:19;36.40;66.90
40253;DHT22;25972;51.854;4.534;2022-07-19T09:24:47;36.70;67.30
40253;DHT22;25972;51.854;4.534;2022-07-19T09:27:23;36.90;67.40
40253;DHT22;25972;51.854;4.534;2022-07-19T09:29:53;36.90;65.70
40253;DHT22;25972;51.854;4.534;2022-07-19T09:32:21;37.10;66.40
40253;DHT22;25972;51.854;4.534;2022-07-19T09:34:58;37.30;66.10
40253;DHT22;25972;51.854;4.534;2022-07-19T09:37:26;37.60;65.50
40253;DHT22;25972;51.854;4.534;2022-07-19T09:40:19;37.50;65.20
40253;DHT22;25972;51.854;4.534;2022-07-19T09:42:45;37.40;65.70
40253;DHT22;25972;51.854;4.534;2022-07-19T09:45:12;37.40;65.90
40253;DHT22;25972;51.854;4.534;2022-07-19T09:47:41;37.80;65.40
40253;DHT22;25972;51.854;4.534;2022-07-19T09:50:13;38.00;65.30
40253;DHT22;25972;51.854;4.534;2022-07-19T09:52:43;37.90;64.10
40253;DHT22;25972;51.854;4.534;2022-07-19T09:55:10;37.80;64.50
40253;DHT22;25972;51.854;4.534;2022-07-19T09:57:39;38.10;64.80
40253;DHT22;25972;51.854;4.534;2022-07-19T10:00:08;38.30;64.70
40253;DHT22;25972;51.854;4.534;2022-07-19T10:02:36;38.50;65.20
40253;DHT22;25972;51.854;4.534;2022-07-19T10:05:04;38.70;64.80
40253;DHT22;25972;51.854;4.534;2022-07-19T10:07:31;38.70;65.20
40253;DHT22;25972;51.854;4.534;2022-07-19T10:10:08;38.60;65.20
40253;DHT22;25972;51.854;4.534;2022-07-19T10:12:39;38.60;65.10
40253;DHT22;25972;51.854;4.534;2022-07-19T10:15:06;38.50;65.40
40253;DHT22;25972;51.854;4.534;2022-07-19T10:17:40;38.60;65.40
40253;DHT22;25972;51.854;4.534;2022-07-19T10:20:07;38.70;65.00
40253;DHT22;25972;51.854;4.534;2022-07-19T10:22:39;38.60;64.50
40253;DHT22;25972;51.854;4.534;2022-07-19T10:32:44;39.10;65.20
40253;DHT22;25972;51.854;4.534;2022-07-19T10:35:30;39.10;64.80
40253;DHT22;25972;51.854;4.534;2022-07-19T10:43:07;39.00;64.50
40253;DHT22;25972;51.854;4.534;2022-07-19T10:45:33;39.10;63.80
40253;DHT22;25972;51.854;4.534;2022-07-19T10:48:01;39.00;64.00
40253;DHT22;25972;51.854;4.534;2022-07-19T10:56:15;39.20;63.20
40253;DHT22;25972;51.854;4.534;2022-07-19T10:58:52;39.00;62.40
40253;DHT22;25972;51.854;4.534;2022-07-19T11:01:19;38.90;63.30
40253;DHT22;25972;51.854;4.534;2022-07-19T11:03:46;38.70;62.30
40253;DHT22;25972;51.854;4.534;2022-07-19T11:06:24;38.70;62.70
40253;DHT22;25972;51.854;4.534;2022-07-19T11:08:55;38.80;62.50
40253;DHT22;25972;51.854;4.534;2022-07-19T11:11:22;38.90;62.60
40253;DHT22;25972;51.854;4.534;2022-07-19T11:13:52;38.90;62.90
40253;DHT22;25972;51.854;4.534;2022-07-19T11:16:18;39.00;62.40
40253;DHT22;25972;51.854;4.534;2022-07-19T11:18:45;38.90;61.70
40253;DHT22;25972;51.854;4.534;2022-07-19T11:21:11;38.80;61.80
40253;DHT22;25972;51.854;4.534;2022-07-19T11:23:41;38.90;61.90
40253;DHT22;25972;51.854;4.534;2022-07-19T11:26:15;38.80;60.90
40253;DHT22;25972;51.854;4.534;2022-07-19T11:28:45;39.10;61.70
40253;DHT22;25972;51.854;4.534;2022-07-19T11:31:21;39.10;60.60
40253;DHT22;25972;51.854;4.534;2022-07-19T11:33:49;38.70;60.60
40253;DHT22;25972;51.854;4.534;2022-07-19T11:36:17;38.60;61.40
40253;DHT22;25972;51.854;4.534;2022-07-19T11:38:52;38.70;60.90
40253;DHT22;25972;51.854;4.534;2022-07-19T11:41:23;38.70;60.00
40253;DHT22;25972;51.854;4.534;2022-07-19T11:43:53;38.50;59.80
40253;DHT22;25972;51.854;4.534;2022-07-19T11:46:20;38.50;60.50
40253;DHT22;25972;51.854;4.534;2022-07-19T11:48:48;38.70;60.60
40253;DHT22;25972;51.854;4.534;2022-07-19T11:51:14;38.90;60.10
40253;DHT22;25972;51.854;4.534;2022-07-19T11:53:40;39.00;60.30
40253;DHT22;25972;51.854;4.534;2022-07-19T11:56:20;39.00;60.00
40253;DHT22;25972;51.854;4.534;2022-07-19T11:58:46;39.20;59.70
40253;DHT22;25972;51.854;4.534;2022-07-19T12:01:12;39.30;59.70
40253;DHT22;25972;51.854;4.534;2022-07-19T12:03:38;39.40;59.80
40253;DHT22;25972;51.854;4.534;2022-07-19T12:06:06;39.10;59.00
40253;DHT22;25972;51.854;4.534;2022-07-19T12:08:37;39.20;59.20
40253;DHT22;25972;51.854;4.534;2022-07-19T12:11:23;39.40;59.90
40253;DHT22;25972;51.854;4.534;2022-07-19T12:13:53;39.70;58.80
40253;DHT22;25972;51.854;4.534;2022-07-19T12:16:21;39.60;58.40
40253;DHT22;25972;51.854;4.534;2022-07-19T12:18:53;39.70;58.60
40253;DHT22;25972;51.854;4.534;2022-07-19T12:24:20;39.70;57.50
40253;DHT22;25972;51.854;4.534;2022-07-19T12:27:00;39.40;58.10
40253;DHT22;25972;51.854;4.534;2022-07-19T12:29:27;39.50;57.40
40253;DHT22;25972;51.854;4.534;2022-07-19T12:31:59;39.30;57.10
40253;DHT22;25972;51.854;4.534;2022-07-19T12:34:26;39.30;57.20
40253;DHT22;25972;51.854;4.534;2022-07-19T12:36:52;39.20;57.00
40253;DHT22;25972;51.854;4.534;2022-07-19T12:39:24;39.30;57.40
40253;DHT22;25972;51.854;4.534;2022-07-19T12:42:01;39.30;57.10
40253;DHT22;25972;51.854;4.534;2022-07-19T12:44:28;39.40;56.70
40253;DHT22;25972;51.854;4.534;2022-07-19T12:46:54;39.60;57.30
40253;DHT22;25972;51.854;4.534;2022-07-19T12:49:20;39.70;56.90
40253;DHT22;25972;51.854;4.534;2022-07-19T12:51:49;39.70;56.30
40253;DHT22;25972;51.854;4.534;2022-07-19T12:54:15;39.50;55.60
40253;DHT22;25972;51.854;4.534;2022-07-19T12:56:41;39.70;55.70
40253;DHT22;25972;51.854;4.534;2022-07-19T12:59:07;39.60;55.10
40253;DHT22;25972;51.854;4.534;2022-07-19T13:01:51;39.20;54.40
40253;DHT22;25972;51.854;4.534;2022-07-19T13:04:17;39.20;54.60
40253;DHT22;25972;51.854;4.534;2022-07-19T13:06:43;39.10;54.60
40253;DHT22;25972;51.854;4.534;2022-07-19T13:09:09;38.90;54.20
40253;DHT22;25972;51.854;4.534;2022-07-19T13:11:35;39.10;54.50
40253;DHT22;25972;51.854;4.534;2022-07-19T13:14:02;39.20;54.20
40253;DHT22;25972;51.854;4.534;2022-07-19T13:16:27;39.20;53.70
40253;DHT22;25972;51.854;4.534;2022-07-19T13:18:53;39.10;53.70
40253;DHT22;25972;51.854;4.534;2022-07-19T13:21:19;39.20;53.90
40253;DHT22;25972;51.854;4.534;2022-07-19T13:23:47;39.20;53.40
40253;DHT22;25972;51.854;4.534;2022-07-19T13:26:13;39.30;53.70
40253;DHT22;25972;51.854;4.534;2022-07-19T13:28:38;39.30;53.00
40253;DHT22;25972;51.854;4.534;2022-07-19T13:31:04;39.20;52.90
40253;DHT22;25972;51.854;4.534;2022-07-19T13:33:30;39.10;52.60
40253;DHT22;25972;51.854;4.534;2022-07-19T13:35:56;39.10;52.50
40253;DHT22;25972;51.854;4.534;2022-07-19T13:38:21;38.90;52.30
40253;DHT22;25972;51.854;4.534;2022-07-19T13:40:47;39.00;52.70
40253;DHT22;25972;51.854;4.534;2022-07-19T13:43:13;39.00;52.40
40253;DHT22;25972;51.854;4.534;2022-07-19T13:45:39;39.20;52.90
40253;DHT22;25972;51.854;4.534;2022-07-19T13:48:05;39.20;53.10
40253;DHT22;25972;51.854;4.534;2022-07-19T13:50:31;39.20;53.30
40253;DHT22;25972;51.854;4.534;2022-07-19T13:52:58;39.20;53.30
40253;DHT22;25972;51.854;4.534;2022-07-19T13:55:25;39.10;52.90
40253;DHT22;25972;51.854;4.534;2022-07-19T13:57:51;39.10;52.60
40253;DHT22;25972;51.854;4.534;2022-07-19T14:00:17;38.90;52.80
40253;DHT22;25972;51.854;4.534;2022-07-19T14:02:46;38.90;52.70
40253;DHT22;25972;51.854;4.534;2022-07-19T14:05:12;38.90;53.00
40253;DHT22;25972;51.854;4.534;2022-07-19T14:07:38;39.10;53.20
40253;DHT22;25972;51.854;4.534;2022-07-19T14:10:05;38.90;52.40
40253;DHT22;25972;51.854;4.534;2022-07-19T14:12:31;38.80;52.40
40253;DHT22;25972;51.854;4.534;2022-07-19T14:14:56;38.90;53.20
40253;DHT22;25972;51.854;4.534;2022-07-19T14:17:22;38.90;53.30
40253;DHT22;25972;51.854;4.534;2022-07-19T14:19:49;38.90;53.40
40253;DHT22;25972;51.854;4.534;2022-07-19T14:22:14;38.90;53.20
40253;DHT22;25972;51.854;4.534;2022-07-19T14:24:41;38.90;53.30
40253;DHT22;25972;51.854;4.534;2022-07-19T14:27:07;38.90;53.70
40253;DHT22;25972;51.854;4.534;2022-07-19T14:29:33;38.70;54.20
40253;DHT22;25972;51.854;4.534;2022-07-19T14:31:59;38.70;53.90
40253;DHT22;25972;51.854;4.534;2022-07-19T14:34:25;38.70;54.40
40253;DHT22;25972;51.854;4.534;2022-07-19T14:36:53;38.60;54.80
40253;DHT22;25972;51.854;4.534;2022-07-19T14:39:18;38.50;55.00
40253;DHT22;25972;51.854;4.534;2022-07-19T14:41:44;38.50;55.00
40253;DHT22;25972;51.854;4.534;2022-07-19T14:44:10;38.30;54.90
40253;DHT22;25972;51.854;4.534;2022-07-19T14:46:36;38.40;55.10
40253;DHT22;25972;51.854;4.534;2022-07-19T14:49:02;38.50;55.10
40253;DHT22;25972;51.854;4.534;2022-07-19T14:51:27;38.60;55.50
40253;DHT22;25972;51.854;4.534;2022-07-19T14:53:53;38.50;54.90
40253;DHT22;25972;51.854;4.534;2022-07-19T14:56:19;38.40;55.30
40253;DHT22;25972;51.854;4.534;2022-07-19T14:58:45;38.40;54.70
40253;DHT22;25972;51.854;4.534;2022-07-19T15:01:11;38.30;54.50
40253;DHT22;25972;51.854;4.534;2022-07-19T15:03:37;38.30;54.40
40253;DHT22;25972;51.854;4.534;2022-07-19T15:06:03;38.10;54.10
40253;DHT22;25972;51.854;4.534;2022-07-19T15:08:29;38.00;54.00
40253;DHT22;25972;51.854;4.534;2022-07-19T15:10:54;38.00;54.20
40253;DHT22;25972;51.854;4.534;2022-07-19T15:13:20;38.10;54.50
40253;DHT22;25972;51.854;4.534;2022-07-19T15:15:46;38.10;54.40
40253;DHT22;25972;51.854;4.534;2022-07-19T15:18:12;38.10;54.00
40253;DHT22;25972;51.854;4.534;2022-07-19T15:20:39;38.10;54.10
40253;DHT22;25972;51.854;4.534;2022-07-19T15:23:04;38.20;54.40
40253;DHT22;25972;51.854;4.534;2022-07-19T15:25:30;38.20;54.60
40253;DHT22;25972;51.854;4.534;2022-07-19T15:27:56;38.20;54.30
40253;DHT22;25972;51.854;4.534;2022-07-19T15:30:23;38.10;54.40
40253;DHT22;25972;51.854;4.534;2022-07-19T15:32:49;38.00;53.90
40253;DHT22;25972;51.854;4.534;2022-07-19T15:35:15;38.10;54.20
40253;DHT22;25972;51.854;4.534;2022-07-19T15:37:41;38.10;53.70
40253;DHT22;25972;51.854;4.534;2022-07-19T15:40:08;38.00;53.70
40253;DHT22;25972;51.854;4.534;2022-07-19T15:42:52;37.90;54.00
40253;DHT22;25972;51.854;4.534;2022-07-19T15:45:19;37.90;53.60
40253;DHT22;25972;51.854;4.534;2022-07-19T15:47:46;37.90;53.70
40253;DHT22;25972;51.854;4.534;2022-07-19T15:50:14;37.80;53.80
40253;DHT22;25972;51.854;4.534;2022-07-19T15:52:40;37.90;54.20